Terminal Aerodrome Forecast
Issued by NWS

Home | Current Version | Previous Version | Text Only | Print | Product List | Glossary On
Versions: 1 2 3 4 5 6 7 8 9 10 11 12 13
000
FTUS44 KCRP 251700
TAFALI
TAF
KALI 251724Z 2518/2618 VRB04KT P6SM SKC
     FM252000 12007KT P6SM SKC
     FM260700 VRB03KT 4SM BR SKC
     FM261000 VRB02KT 1/2SM FG BKN002
     FM261400 20004KT 5SM BR FEW020
     FM261600 19006KT P6SM SKC=

USA.gov is the U.S. government's official web portal to all federal, state and local government web resources and services.